Terminal Aerodrome Forecast
Issued by NWS

Current Version | Previous Version | Text Only | Print | Product List | Glossary On
Versions: 1 2 3 4 5 6 7 8 9 10 11 12 13 14 15 16 17 18 19 20 21 22 23 24 25 26 27 28 29 30
973
FTUS41 KBOX 090542
TAFFMH
TAF
KFMH 090542Z 0906/1006 36008KT P6SM BKN015
      TEMPO 0906/0908 3SM -SHSN
     FM092000 02009KT P6SM OVC015
     FM092200 02008KT P6SM OVC025
     FM100000 02006KT P6SM OVC040
     FM100300 01004KT P6SM OVC030=

USA.gov is the U.S. government's official web portal to all federal, state and local government web resources and services.